Ana Sayfa
METAR-TAF:

METAR-TAF

Havaalanları :

Gran Canaria, İspanya

Gran Canaria Havalimanı

Enlem: 27-56N, Boylam: 015-23W, yükseklik: 23 m

Güncel hava durumu gözlemi

Rapor saat 22:00 UTC de 7 dakika önce yapıldı.
Rüzgar kuzeydan 12 kt
Sıcaklık 17°C
Nem 82%
Basınç 1027 hPa
Görüş mesafesi 10 km veya daha fazla
1500 ft yükseklikte az bulutlu

METAR: GCLP 212200Z 01012KT 9999 FEW015 17/14 Q1027 NOSIG

Saat: 22:07 (22:07 UTC)

Tahmin

Rapor saat 20:00 UTC de 2 saat ve 7 dakika önce yapıldı.
Ayın 21'si saat 21 UTC'den ayın 22'si saat 21 UTC'ye kadar geçerli Tahmin
Rüzgar kuzeydan 11 kt
Görüş mesafesi 10 km veya daha fazla
2000 ft yükseklikte az bulutlu

TAF: GCLP 212000Z 2121/2221 35011KT 9999 FEW020 TX23/2214Z TN16/2206Z

4.000'den fazla havaalanı için hava durumu gözlemleri ve tahminleri (METAR ve TAF raporları).

Kullanılabilir istasyonlar harita üzerinde sarı ve kırmızı noktalarla gösterilir.

İstasyonun adını görmek için fareyi noktanın üzerinde gezdirin.

Sonrasında hava gözlem ve tahminlerini görmek için tıklayın.

Haritayı değiştirmek için: yaklaştırmak için siyah artı işaretli yeşil düğmeye ve uzaklaştırmak için de eksi işaretli düğmeye hızla tıklayın; bitişik haritalar için yeşil okları kullanın.


METAR-TAF: